Vivien A — TCYC4 — position and weather

sailwx.info

Track history (hours):
 
Tides and Currents Weather Stations Pressure Air Temp Water Temp Dewpoint Dewpoint Depression Visibility Wind Speed Wind Dir Waves Ship Positions

Vivien A

Last reported at 2016-May-03 22:34 UTC. Time now 2016-May-05 14:19 UTC.
Position N 35°57' W 005°33'.

Length 210 m; draft 11.6 m.

Type: Ship (hazmat cat A). MMSI: 271040635.

Date/timePositionNaut miles runAvg speedWind from/ knotsBaromVisibWave heightAir tempDewpointWater temp
2016-May-03 22:34N 35°57' W 005°33'3 0.3
2016-May-03 11:04N 35°56' W 005°30'611.3
2016-May-03 10:33N 36°00' W 005°24'9 0.3
2016-May-02 02:10N 36°10' W 005°25'0 0.0
2016-May-01 18:33N 36°10' W 005°25'2 1.4
2016-May-01 17:16N 36°08' W 005°25'0 0.0
2016-May-01 15:28N 36°08' W 005°25'0 0.0
2016-May-01 14:25N 36°08' W 005°25'0 0.0
2016-May-01 13:19N 36°08' W 005°25'0 0.0
2016-May-01 12:28N 36°08' W 005°25'0 0.0
2016-May-01 10:28N 36°08' W 005°25'0 0.0
2016-May-01 09:31N 36°08' W 005°25'1 0.8
2016-May-01 08:33N 36°08' W 005°25'6 6.3
2016-May-01 07:33N 36°05' W 005°18'6 4.3
2016-May-01 06:10N 36°09' W 005°12'1 1.7
2016-May-01 05:33N 36°08' W 005°13'2 1.2
2016-May-01 04:14N 36°09' W 005°12'20412.2
2016-Apr-30 11:32N 37°09' W 001°08'1616.1
2016-Apr-30 10:33N 37°20' W 000°54'1514.8
2016-Apr-30 09:33N 37°29' W 000°40'1514.6
2016-Apr-30 08:33N 37°40' W 000°28'1514.8
2016-Apr-30 07:33N 37°53' W 000°18'3014.9
2016-Apr-30 05:33N 38°18' E 000°02'74 2.4
2016-Apr-28 22:13N 39°32' W 000°08'1013.5
2016-Apr-28 21:29N 39°26' W 000°18'2 2.0
2016-Apr-28 20:33N 39°27' W 000°19'0 0.0
2016-Apr-28 19:33N 39°27' W 000°19'0 0.0
2016-Apr-28 18:33N 39°27' W 000°19'0 0.0
2016-Apr-28 17:33N 39°27' W 000°19'0 0.0
2016-Apr-28 16:33N 39°27' W 000°19'0 0.0
2016-Apr-28 15:33N 39°27' W 000°19'0 0.0
2016-Apr-28 14:33N 39°27' W 000°19'0 0.0
2016-Apr-28 13:33N 39°27' W 000°19'0 0.0
2016-Apr-28 12:33N 39°27' W 000°19'0 0.0
2016-Apr-28 11:33N 39°27' W 000°19'0 0.0
2016-Apr-28 10:33N 39°27' W 000°19'0 0.0
2016-Apr-28 09:33N 39°27' W 000°19'0 0.0
2016-Apr-28 08:33N 39°27' W 000°19'0 0.0
2016-Apr-28 07:33N 39°27' W 000°19'0 0.0
2016-Apr-28 06:33N 39°27' W 000°19'0 0.0
2016-Apr-28 05:33N 39°27' W 000°19'0 0.0
2016-Apr-28 04:33N 39°27' W 000°19'0 0.0
2016-Apr-28 03:33N 39°27' W 000°19'0 0.0
2016-Apr-28 02:33N 39°27' W 000°19'0 0.0
2016-Apr-28 01:33N 39°27' W 000°19'0 0.0
2016-Apr-28 00:33N 39°27' W 000°19'0 0.0
2016-Apr-27 23:33N 39°27' W 000°19'0 0.0
2016-Apr-27 22:33N 39°27' W 000°19'0 0.0
2016-Apr-27 21:33N 39°27' W 000°19'0 0.0
2016-Apr-27 20:33N 39°27' W 000°19'0 0.0
2016-Apr-27 19:33N 39°27' W 000°19'0 0.0
2016-Apr-27 18:33N 39°27' W 000°19'0 0.0
2016-Apr-27 17:33N 39°27' W 000°19'0 0.0
2016-Apr-27 16:33N 39°27' W 000°19'0 0.0
2016-Apr-27 15:30N 39°27' W 000°19'0 0.0
2016-Apr-27 14:33N 39°27' W 000°19'0 0.0
2016-Apr-27 13:33N 39°27' W 000°19'0 0.0
2016-Apr-27 12:30N 39°27' W 000°19'0 0.0
2016-Apr-27 11:33N 39°27' W 000°19'0 0.0
2016-Apr-27 10:33N 39°27' W 000°19'0 0.0
2016-Apr-27 09:33N 39°27' W 000°19'0 0.0
2016-Apr-27 08:33N 39°27' W 000°19'0 0.0
2016-Apr-27 07:33N 39°27' W 000°19'0 0.0
2016-Apr-27 06:33N 39°27' W 000°19'0 0.0
2016-Apr-27 05:33N 39°27' W 000°19'0 0.0
2016-Apr-27 04:33N 39°27' W 000°19'2 2.3
2016-Apr-27 03:33N 39°26' W 000°17'52 9.6
2016-Apr-26 22:11N 38°47' E 000°28'610.0
2016-Apr-26 21:33N 38°41' E 000°27'1110.7
2016-Apr-26 20:34N 38°32' E 000°20'1110.8
2016-Apr-26 19:33N 38°22' E 000°13'1110.8
2016-Apr-26 18:30N 38°13' E 000°04'1111.3
2016-Apr-26 17:33N 38°05' W 000°04'1111.4
2016-Apr-26 16:33N 37°55' W 000°12'1211.2
2016-Apr-26 15:30N 37°45' W 000°20'1111.3
2016-Apr-26 14:33N 37°36' W 000°28'1110.8
2016-Apr-26 13:33N 37°29' W 000°37'1111.4
2016-Apr-26 12:33N 37°21' W 000°48'1413.9
2016-Apr-26 11:31N 37°12' W 001°02'1513.6
2016-Apr-26 10:25N 37°01' W 001°15'20613.0
2016-Apr-25 18:34N 35°59' W 005°19'54213.5
2016-Apr-24 02:14N 29°31' W 012°50'2413.2
2016-Apr-24 00:24N 29°11' W 013°06'1513.0
2016-Apr-23 23:13N 28°58' W 013°15'  
Track history (hours):
 
Tides and Currents Weather Stations Pressure Air Temp Water Temp Dewpoint Dewpoint Depression Visibility Wind Speed Wind Dir Waves Ship Positions

Vivien A

Last reported at 2016-May-03 22:34 UTC. Time now 2016-May-05 14:19 UTC.
Position N 35°57' W 005°33'.

Length 210 m; draft 11.6 m.

Type: Ship (hazmat cat A). MMSI: 271040635.

Date/timePositionNaut miles runAvg speedWind from/ knotsBaromVisibWave heightAir tempDewpointWater temp
2016-May-03 22:34N 35°57' W 005°33'3 0.3
2016-May-03 11:04N 35°56' W 005°30'611.3
2016-May-03 10:33N 36°00' W 005°24'9 0.3
2016-May-02 02:10N 36°10' W 005°25'0 0.0
2016-May-01 18:33N 36°10' W 005°25'2 1.4
2016-May-01 17:16N 36°08' W 005°25'0 0.0
2016-May-01 15:28N 36°08' W 005°25'0 0.0
2016-May-01 14:25N 36°08' W 005°25'0 0.0
2016-May-01 13:19N 36°08' W 005°25'0 0.0
2016-May-01 12:28N 36°08' W 005°25'0 0.0
2016-May-01 10:28N 36°08' W 005°25'0 0.0
2016-May-01 09:31N 36°08' W 005°25'1 0.8
2016-May-01 08:33N 36°08' W 005°25'6 6.3
2016-May-01 07:33N 36°05' W 005°18'6 4.3
2016-May-01 06:10N 36°09' W 005°12'1 1.7
2016-May-01 05:33N 36°08' W 005°13'2 1.2
2016-May-01 04:14N 36°09' W 005°12'20412.2
2016-Apr-30 11:32N 37°09' W 001°08'1616.1
2016-Apr-30 10:33N 37°20' W 000°54'1514.8
2016-Apr-30 09:33N 37°29' W 000°40'1514.6
2016-Apr-30 08:33N 37°40' W 000°28'1514.8
2016-Apr-30 07:33N 37°53' W 000°18'3014.9
2016-Apr-30 05:33N 38°18' E 000°02'74 2.4
2016-Apr-28 22:13N 39°32' W 000°08'1013.5
2016-Apr-28 21:29N 39°26' W 000°18'2 2.0
2016-Apr-28 20:33N 39°27' W 000°19'0 0.0
2016-Apr-28 19:33N 39°27' W 000°19'0 0.0
2016-Apr-28 18:33N 39°27' W 000°19'0 0.0
2016-Apr-28 17:33N 39°27' W 000°19'0 0.0
2016-Apr-28 16:33N 39°27' W 000°19'0 0.0
2016-Apr-28 15:33N 39°27' W 000°19'0 0.0
2016-Apr-28 14:33N 39°27' W 000°19'0 0.0
2016-Apr-28 13:33N 39°27' W 000°19'0 0.0
2016-Apr-28 12:33N 39°27' W 000°19'0 0.0
2016-Apr-28 11:33N 39°27' W 000°19'0 0.0
2016-Apr-28 10:33N 39°27' W 000°19'0 0.0
2016-Apr-28 09:33N 39°27' W 000°19'0 0.0
2016-Apr-28 08:33N 39°27' W 000°19'0 0.0
2016-Apr-28 07:33N 39°27' W 000°19'0 0.0
2016-Apr-28 06:33N 39°27' W 000°19'0 0.0
2016-Apr-28 05:33N 39°27' W 000°19'0 0.0
2016-Apr-28 04:33N 39°27' W 000°19'0 0.0
2016-Apr-28 03:33N 39°27' W 000°19'0 0.0
2016-Apr-28 02:33N 39°27' W 000°19'0 0.0
2016-Apr-28 01:33N 39°27' W 000°19'0 0.0
2016-Apr-28 00:33N 39°27' W 000°19'0 0.0
2016-Apr-27 23:33N 39°27' W 000°19'0 0.0
2016-Apr-27 22:33N 39°27' W 000°19'0 0.0
2016-Apr-27 21:33N 39°27' W 000°19'0 0.0
2016-Apr-27 20:33N 39°27' W 000°19'0 0.0
2016-Apr-27 19:33N 39°27' W 000°19'0 0.0
2016-Apr-27 18:33N 39°27' W 000°19'0 0.0
2016-Apr-27 17:33N 39°27' W 000°19'0 0.0
2016-Apr-27 16:33N 39°27' W 000°19'0 0.0
2016-Apr-27 15:30N 39°27' W 000°19'0 0.0
2016-Apr-27 14:33N 39°27' W 000°19'0 0.0
2016-Apr-27 13:33N 39°27' W 000°19'0 0.0
2016-Apr-27 12:30N 39°27' W 000°19'0 0.0
2016-Apr-27 11:33N 39°27' W 000°19'0 0.0
2016-Apr-27 10:33N 39°27' W 000°19'0 0.0
2016-Apr-27 09:33N 39°27' W 000°19'0 0.0
2016-Apr-27 08:33N 39°27' W 000°19'0 0.0
2016-Apr-27 07:33N 39°27' W 000°19'0 0.0
2016-Apr-27 06:33N 39°27' W 000°19'0 0.0
2016-Apr-27 05:33N 39°27' W 000°19'0 0.0
2016-Apr-27 04:33N 39°27' W 000°19'2 2.3
2016-Apr-27 03:33N 39°26' W 000°17'52 9.6
2016-Apr-26 22:11N 38°47' E 000°28'610.0
2016-Apr-26 21:33N 38°41' E 000°27'1110.7
2016-Apr-26 20:34N 38°32' E 000°20'1110.8
2016-Apr-26 19:33N 38°22' E 000°13'1110.8
2016-Apr-26 18:30N 38°13' E 000°04'1111.3
2016-Apr-26 17:33N 38°05' W 000°04'1111.4
2016-Apr-26 16:33N 37°55' W 000°12'1211.2
2016-Apr-26 15:30N 37°45' W 000°20'1111.3
2016-Apr-26 14:33N 37°36' W 000°28'1110.8
2016-Apr-26 13:33N 37°29' W 000°37'1111.4
2016-Apr-26 12:33N 37°21' W 000°48'1413.9
2016-Apr-26 11:31N 37°12' W 001°02'1513.6
2016-Apr-26 10:25N 37°01' W 001°15'20613.0
2016-Apr-25 18:34N 35°59' W 005°19'54213.5
2016-Apr-24 02:14N 29°31' W 012°50'2413.2
2016-Apr-24 00:24N 29°11' W 013°06'1513.0
2016-Apr-23 23:13N 28°58' W 013°15'  

Dump ship's entire track history